Safari Endeavour — WDG2742 — position and weather

sailwx.info

Track history (hours):
 
Tides and Currents Weather Stations Pressure Air Temp Water Temp Dewpoint Dewpoint Depression Visibility Wind Speed Wind Dir Waves Ship Positions

Safari Endeavour

Owner: InnerSea Discoveries, LLC, Seattle, WA. More information available from US FCC via Universal Licensing System and Coast Guard Vessel Documentation Center.

Last reported at 2017-Dec-10 11:16 UTC. Time now 2017-Dec-12 19:32 UTC.
Position N 24°18' W 110°22'.

Length 61 m; draft 3.1 m.

Type: Passenger vessel. MMSI: 338423000.

Date/timePositionNaut miles runAvg speedWind from/ knotsBaromVisibWave heightAir tempDewpointWater temp
2017-Dec-10 11:16N 24°18' W 110°22'2 7.1
2017-Dec-10 11:00N 24°16' W 110°21'2 4.0
2017-Dec-10 10:30N 24°18' W 110°22'3 1.1
2017-Dec-10 08:03N 24°21' W 110°23'0 7.2
2017-Dec-10 08:00N 24°20' W 110°22'3 6.7
2017-Dec-10 07:29N 24°17' W 110°21'3 6.9
2017-Dec-10 07:00N 24°14' W 110°20'3 5.2
2017-Dec-10 06:30N 24°12' W 110°18'2 4.3
2017-Dec-10 06:00N 24°10' W 110°19'0 0.0
2017-Dec-10 05:30N 24°10' W 110°19'0 0.0
2017-Dec-10 05:00N 24°10' W 110°19'0 0.0
2017-Dec-10 04:24N 24°10' W 110°19'0 0.0
2017-Dec-10 03:55N 24°10' W 110°19'0 0.0
2017-Dec-10 03:30N 24°10' W 110°19'0 0.0
2017-Dec-10 03:00N 24°10' W 110°19'0 0.0
2017-Dec-10 02:27N 24°10' W 110°19'0 0.0
2017-Dec-10 01:53N 24°10' W 110°19'0 0.0
2017-Dec-10 01:30N 24°10' W 110°19'0 0.0
2017-Dec-10 01:00N 24°10' W 110°19'0 0.0
2017-Dec-10 00:30N 24°10' W 110°19'0 0.0
2017-Dec-10 00:00N 24°10' W 110°19'0 0.0
2017-Dec-09 23:28N 24°10' W 110°19'0 0.0
2017-Dec-09 23:00N 24°10' W 110°19'0 0.0
2017-Dec-09 22:16N 24°10' W 110°19'0 0.0
2017-Dec-09 21:57N 24°10' W 110°19'0 0.0
2017-Dec-09 21:30N 24°10' W 110°19'0 0.0
2017-Dec-09 21:00N 24°10' W 110°19'0 0.0
2017-Dec-09 20:30N 24°10' W 110°19'0 0.0
2017-Dec-09 19:58N 24°10' W 110°19'0 0.0
2017-Dec-09 19:28N 24°10' W 110°19'0 0.0
2017-Dec-09 19:00N 24°10' W 110°19'0 0.0
2017-Dec-09 18:30N 24°10' W 110°19'0 0.0
2017-Dec-09 18:00N 24°10' W 110°19'0 0.0
2017-Dec-09 17:30N 24°10' W 110°19'0 0.0
2017-Dec-09 17:00N 24°10' W 110°19'0 0.0
2017-Dec-09 16:30N 24°10' W 110°19'0 0.0
2017-Dec-09 16:00N 24°10' W 110°19'0 0.0
2017-Dec-09 15:30N 24°10' W 110°19'0 0.0
2017-Dec-09 15:00N 24°10' W 110°19'0 0.0
2017-Dec-09 14:30N 24°10' W 110°19'0 0.0
2017-Dec-09 14:00N 24°10' W 110°19'0 0.0
2017-Dec-09 13:30N 24°10' W 110°19'0 0.0
2017-Dec-09 13:00N 24°10' W 110°19'0 0.1
2017-Dec-09 12:30N 24°10' W 110°19'0 0.1
2017-Dec-09 12:00N 24°10' W 110°19'0 0.0
2017-Dec-09 11:30N 24°10' W 110°19'0 0.0
2017-Dec-09 11:00N 24°10' W 110°19'0 0.0
2017-Dec-09 10:30N 24°10' W 110°19'0 0.0
2017-Dec-09 10:00N 24°10' W 110°19'0 0.0
2017-Dec-09 09:30N 24°10' W 110°19'0 0.0
2017-Dec-09 09:00N 24°10' W 110°19'0 0.0
2017-Dec-09 08:30N 24°10' W 110°19'0 0.0
2017-Dec-09 08:00N 24°10' W 110°19'0 0.0
2017-Dec-09 07:30N 24°10' W 110°19'0 0.0
2017-Dec-09 07:00N 24°10' W 110°19'0 0.0
2017-Dec-09 06:30N 24°10' W 110°19'0 0.0
2017-Dec-09 06:00N 24°10' W 110°19'0 0.0
2017-Dec-09 05:27N 24°10' W 110°19'0 0.0
2017-Dec-09 05:00N 24°10' W 110°19'0 0.0
2017-Dec-09 04:30N 24°10' W 110°19'0 0.0
2017-Dec-09 04:00N 24°10' W 110°19'0 0.0
2017-Dec-09 03:30N 24°10' W 110°19'0 0.0
2017-Dec-09 03:00N 24°10' W 110°19'0 0.0
2017-Dec-09 02:30N 24°10' W 110°19'0 0.0
2017-Dec-09 01:57N 24°10' W 110°19'0 0.0
2017-Dec-09 01:30N 24°10' W 110°19'0 0.0
2017-Dec-09 01:00N 24°10' W 110°19'0 0.0
2017-Dec-09 00:29N 24°10' W 110°19'0 0.0
2017-Dec-08 23:59N 24°10' W 110°19'0 0.0
2017-Dec-08 23:29N 24°10' W 110°19'0 0.0
2017-Dec-08 22:58N 24°10' W 110°19'0 0.0
2017-Dec-08 22:29N 24°10' W 110°19'0 0.0
2017-Dec-08 21:59N 24°10' W 110°19'0 0.0
2017-Dec-08 21:27N 24°10' W 110°19'0 0.0
2017-Dec-08 20:59N 24°10' W 110°19'0 0.0
2017-Dec-08 20:29N 24°10' W 110°19'0 0.0
2017-Dec-08 19:59N 24°10' W 110°19'0 0.0
2017-Dec-08 19:29N 24°10' W 110°19'0 0.0
2017-Dec-08 18:59N 24°10' W 110°19'0 0.0
2017-Dec-08 18:24N 24°10' W 110°19'0 0.0
2017-Dec-08 17:59N 24°10' W 110°19'0 0.0
2017-Dec-08 17:29N 24°10' W 110°19'0 0.0
2017-Dec-08 16:54N 24°10' W 110°19'0 0.0
2017-Dec-08 16:29N 24°10' W 110°19'0 0.0
2017-Dec-08 16:00N 24°10' W 110°19'0 0.0
2017-Dec-08 15:30N 24°10' W 110°19'0 0.0
2017-Dec-08 14:59N 24°10' W 110°19'0 0.3
2017-Dec-08 14:29N 24°10' W 110°19'1 1.4
2017-Dec-08 13:59N 24°10' W 110°19'0 0.8
2017-Dec-08 13:29N 24°10' W 110°19'2 3.8
2017-Dec-08 12:59N 24°12' W 110°18'2 4.6
2017-Dec-08 12:31N 24°14' W 110°20'3 6.4
2017-Dec-08 11:59N 24°17' W 110°21'  
2017-Dec-04 03:33N 24°17' W 110°21'1 8.3
2017-Dec-04 03:29N 24°17' W 110°21'0 1.0
2017-Dec-04 02:59N 24°17' W 110°20'1 1.9
2017-Dec-04 02:29N 24°17' W 110°21'1 0.1
2017-Dec-03 07:38N 24°18' W 110°21'1 6.1
2017-Dec-03 07:30N 24°18' W 110°21'3 6.5
2017-Dec-03 07:00N 24°14' W 110°20'3 5.8
2017-Dec-03 06:30N 24°12' W 110°18'3 5.2
2017-Dec-03 05:59N 24°10' W 110°19'0 0.0
2017-Dec-03 05:29N 24°10' W 110°19'0 0.0
2017-Dec-03 04:59N 24°10' W 110°19'0 0.0
2017-Dec-03 04:29N 24°10' W 110°19'0 0.0
2017-Dec-03 03:59N 24°10' W 110°19'0 0.0
2017-Dec-03 03:28N 24°10' W 110°19'0 0.0
2017-Dec-03 02:58N 24°10' W 110°19'0 0.0
2017-Dec-03 02:28N 24°10' W 110°19'0 0.0
2017-Dec-03 01:58N 24°10' W 110°19'0 0.0
2017-Dec-03 01:28N 24°10' W 110°19'0 0.0
2017-Dec-03 00:58N 24°10' W 110°19'0 0.0
2017-Dec-03 00:19N 24°10' W 110°19'0 0.0
2017-Dec-02 23:58N 24°10' W 110°19'0 0.0
2017-Dec-02 23:29N 24°10' W 110°19'0 0.0
2017-Dec-02 22:59N 24°10' W 110°19'0 0.0
2017-Dec-02 22:29N 24°10' W 110°19'0 0.0
2017-Dec-02 21:58N 24°10' W 110°19'0 0.0
2017-Dec-02 21:28N 24°10' W 110°19'0 0.0
2017-Dec-02 20:58N 24°10' W 110°19'0 0.0
2017-Dec-02 20:28N 24°10' W 110°19'0 0.0
2017-Dec-02 19:58N 24°10' W 110°19'0 0.0
2017-Dec-02 19:26N 24°10' W 110°19'0 0.0
2017-Dec-02 18:58N 24°10' W 110°19'0 0.0
2017-Dec-02 18:28N 24°10' W 110°19'0 0.0
2017-Dec-02 17:58N 24°10' W 110°19'0 0.0
2017-Dec-02 17:28N 24°10' W 110°19'0 0.0
2017-Dec-02 16:58N 24°10' W 110°19'0 0.0
2017-Dec-02 16:15N 24°10' W 110°19'0 0.0
2017-Dec-02 15:58N 24°10' W 110°19'0 0.0
2017-Dec-02 15:28N 24°10' W 110°19'0 0.0
2017-Dec-02 14:58N 24°10' W 110°19'0 0.0
2017-Dec-02 14:29N 24°10' W 110°19'0 0.0
2017-Dec-02 13:59N 24°10' W 110°19'0 0.0
2017-Dec-02 13:28N 24°10' W 110°19'0 0.0
2017-Dec-02 12:58N 24°10' W 110°19'0 0.0
2017-Dec-02 12:28N 24°10' W 110°19'0 0.1
2017-Dec-02 11:58N 24°10' W 110°19'0 0.1
2017-Dec-02 11:28N 24°10' W 110°19'0 0.0
2017-Dec-02 10:58N 24°10' W 110°19'0 0.0
2017-Dec-02 10:28N 24°10' W 110°19'0 0.0
2017-Dec-02 09:58N 24°10' W 110°19'0 0.0
2017-Dec-02 09:28N 24°10' W 110°19'0 0.0
2017-Dec-02 08:58N 24°10' W 110°19'0 0.0
2017-Dec-02 08:28N 24°10' W 110°19'0 0.1
2017-Dec-02 07:58N 24°10' W 110°19'0 0.1
2017-Dec-02 07:28N 24°10' W 110°19'0 0.0
2017-Dec-02 06:58N 24°10' W 110°19'0 0.0
2017-Dec-02 06:28N 24°10' W 110°19'0 0.0
2017-Dec-02 05:58N 24°10' W 110°19'0 0.0
2017-Dec-02 05:28N 24°10' W 110°19'0 0.0
2017-Dec-02 04:58N 24°10' W 110°19'0 0.0
2017-Dec-02 04:28N 24°10' W 110°19'0 0.0
2017-Dec-02 04:00N 24°10' W 110°19'0 0.0
2017-Dec-02 03:28N 24°10' W 110°19'0 0.0
2017-Dec-02 02:58N 24°10' W 110°19'0 0.0
2017-Dec-02 02:28N 24°10' W 110°19'0 0.0
2017-Dec-02 01:58N 24°10' W 110°19'0 0.0
2017-Dec-02 01:28N 24°10' W 110°19'0 0.0
2017-Dec-02 00:58N 24°10' W 110°19'0 0.0
2017-Dec-02 00:28N 24°10' W 110°19'0 0.0
2017-Dec-01 23:58N 24°10' W 110°19'0 0.0
2017-Dec-01 23:28N 24°10' W 110°19'0 0.0
2017-Dec-01 22:58N 24°10' W 110°19'0 0.0
2017-Dec-01 22:28N 24°10' W 110°19'0 0.0
2017-Dec-01 21:58N 24°10' W 110°19'0 0.0
2017-Dec-01 21:28N 24°10' W 110°19'0 0.0
2017-Dec-01 20:58N 24°10' W 110°19'0 0.0
2017-Dec-01 20:28N 24°10' W 110°19'0 0.0
2017-Dec-01 19:58N 24°10' W 110°19'0 0.0
2017-Dec-01 19:28N 24°10' W 110°19'0 0.0
2017-Dec-01 18:58N 24°10' W 110°19'0 0.0
2017-Dec-01 18:28N 24°10' W 110°19'0 0.0
2017-Dec-01 17:58N 24°10' W 110°19'0 0.0
2017-Dec-01 17:28N 24°10' W 110°19'0 0.0
2017-Dec-01 16:58N 24°10' W 110°19'0 0.0
2017-Dec-01 16:28N 24°10' W 110°19'0 0.0
2017-Dec-01 15:58N 24°10' W 110°19'0 0.0
2017-Dec-01 15:28N 24°10' W 110°19'0 0.0
2017-Dec-01 14:58N 24°10' W 110°19'0 0.0
2017-Dec-01 14:30N 24°10' W 110°19'0 0.0
2017-Dec-01 13:57N 24°10' W 110°19'0 0.0
2017-Dec-01 13:29N 24°10' W 110°19'0 0.8
2017-Dec-01 12:59N 24°10' W 110°19'3 5.7
2017-Dec-01 12:29N 24°13' W 110°18'3 6.2
2017-Dec-01 12:00N 24°15' W 110°21'3 7.0
2017-Dec-01 11:30N 24°18' W 110°22'  
Track history (hours):
 
Tides and Currents Weather Stations Pressure Air Temp Water Temp Dewpoint Dewpoint Depression Visibility Wind Speed Wind Dir Waves Ship Positions

Safari Endeavour

Owner: InnerSea Discoveries, LLC, Seattle, WA. More information available from US FCC via Universal Licensing System and Coast Guard Vessel Documentation Center.

Last reported at 2017-Dec-10 11:16 UTC. Time now 2017-Dec-12 19:32 UTC.
Position N 24°18' W 110°22'.

Length 61 m; draft 3.1 m.

Type: Passenger vessel. MMSI: 338423000.

Date/timePositionNaut miles runAvg speedWind from/ knotsBaromVisibWave heightAir tempDewpointWater temp
2017-Dec-10 11:16N 24°18' W 110°22'2 7.1
2017-Dec-10 11:00N 24°16' W 110°21'2 4.0
2017-Dec-10 10:30N 24°18' W 110°22'3 1.1
2017-Dec-10 08:03N 24°21' W 110°23'0 7.2
2017-Dec-10 08:00N 24°20' W 110°22'3 6.7
2017-Dec-10 07:29N 24°17' W 110°21'3 6.9
2017-Dec-10 07:00N 24°14' W 110°20'3 5.2
2017-Dec-10 06:30N 24°12' W 110°18'2 4.3
2017-Dec-10 06:00N 24°10' W 110°19'0 0.0
2017-Dec-10 05:30N 24°10' W 110°19'0 0.0
2017-Dec-10 05:00N 24°10' W 110°19'0 0.0
2017-Dec-10 04:24N 24°10' W 110°19'0 0.0
2017-Dec-10 03:55N 24°10' W 110°19'0 0.0
2017-Dec-10 03:30N 24°10' W 110°19'0 0.0
2017-Dec-10 03:00N 24°10' W 110°19'0 0.0
2017-Dec-10 02:27N 24°10' W 110°19'0 0.0
2017-Dec-10 01:53N 24°10' W 110°19'0 0.0
2017-Dec-10 01:30N 24°10' W 110°19'0 0.0
2017-Dec-10 01:00N 24°10' W 110°19'0 0.0
2017-Dec-10 00:30N 24°10' W 110°19'0 0.0
2017-Dec-10 00:00N 24°10' W 110°19'0 0.0
2017-Dec-09 23:28N 24°10' W 110°19'0 0.0
2017-Dec-09 23:00N 24°10' W 110°19'0 0.0
2017-Dec-09 22:16N 24°10' W 110°19'0 0.0
2017-Dec-09 21:57N 24°10' W 110°19'0 0.0
2017-Dec-09 21:30N 24°10' W 110°19'0 0.0
2017-Dec-09 21:00N 24°10' W 110°19'0 0.0
2017-Dec-09 20:30N 24°10' W 110°19'0 0.0
2017-Dec-09 19:58N 24°10' W 110°19'0 0.0
2017-Dec-09 19:28N 24°10' W 110°19'0 0.0
2017-Dec-09 19:00N 24°10' W 110°19'0 0.0
2017-Dec-09 18:30N 24°10' W 110°19'0 0.0
2017-Dec-09 18:00N 24°10' W 110°19'0 0.0
2017-Dec-09 17:30N 24°10' W 110°19'0 0.0
2017-Dec-09 17:00N 24°10' W 110°19'0 0.0
2017-Dec-09 16:30N 24°10' W 110°19'0 0.0
2017-Dec-09 16:00N 24°10' W 110°19'0 0.0
2017-Dec-09 15:30N 24°10' W 110°19'0 0.0
2017-Dec-09 15:00N 24°10' W 110°19'0 0.0
2017-Dec-09 14:30N 24°10' W 110°19'0 0.0
2017-Dec-09 14:00N 24°10' W 110°19'0 0.0
2017-Dec-09 13:30N 24°10' W 110°19'0 0.0
2017-Dec-09 13:00N 24°10' W 110°19'0 0.1
2017-Dec-09 12:30N 24°10' W 110°19'0 0.1
2017-Dec-09 12:00N 24°10' W 110°19'0 0.0
2017-Dec-09 11:30N 24°10' W 110°19'0 0.0
2017-Dec-09 11:00N 24°10' W 110°19'0 0.0
2017-Dec-09 10:30N 24°10' W 110°19'0 0.0
2017-Dec-09 10:00N 24°10' W 110°19'0 0.0
2017-Dec-09 09:30N 24°10' W 110°19'0 0.0
2017-Dec-09 09:00N 24°10' W 110°19'0 0.0
2017-Dec-09 08:30N 24°10' W 110°19'0 0.0
2017-Dec-09 08:00N 24°10' W 110°19'0 0.0
2017-Dec-09 07:30N 24°10' W 110°19'0 0.0
2017-Dec-09 07:00N 24°10' W 110°19'0 0.0
2017-Dec-09 06:30N 24°10' W 110°19'0 0.0
2017-Dec-09 06:00N 24°10' W 110°19'0 0.0
2017-Dec-09 05:27N 24°10' W 110°19'0 0.0
2017-Dec-09 05:00N 24°10' W 110°19'0 0.0
2017-Dec-09 04:30N 24°10' W 110°19'0 0.0
2017-Dec-09 04:00N 24°10' W 110°19'0 0.0
2017-Dec-09 03:30N 24°10' W 110°19'0 0.0
2017-Dec-09 03:00N 24°10' W 110°19'0 0.0
2017-Dec-09 02:30N 24°10' W 110°19'0 0.0
2017-Dec-09 01:57N 24°10' W 110°19'0 0.0
2017-Dec-09 01:30N 24°10' W 110°19'0 0.0
2017-Dec-09 01:00N 24°10' W 110°19'0 0.0
2017-Dec-09 00:29N 24°10' W 110°19'0 0.0
2017-Dec-08 23:59N 24°10' W 110°19'0 0.0
2017-Dec-08 23:29N 24°10' W 110°19'0 0.0
2017-Dec-08 22:58N 24°10' W 110°19'0 0.0
2017-Dec-08 22:29N 24°10' W 110°19'0 0.0
2017-Dec-08 21:59N 24°10' W 110°19'0 0.0
2017-Dec-08 21:27N 24°10' W 110°19'0 0.0
2017-Dec-08 20:59N 24°10' W 110°19'0 0.0
2017-Dec-08 20:29N 24°10' W 110°19'0 0.0
2017-Dec-08 19:59N 24°10' W 110°19'0 0.0
2017-Dec-08 19:29N 24°10' W 110°19'0 0.0
2017-Dec-08 18:59N 24°10' W 110°19'0 0.0
2017-Dec-08 18:24N 24°10' W 110°19'0 0.0
2017-Dec-08 17:59N 24°10' W 110°19'0 0.0
2017-Dec-08 17:29N 24°10' W 110°19'0 0.0
2017-Dec-08 16:54N 24°10' W 110°19'0 0.0
2017-Dec-08 16:29N 24°10' W 110°19'0 0.0
2017-Dec-08 16:00N 24°10' W 110°19'0 0.0
2017-Dec-08 15:30N 24°10' W 110°19'0 0.0
2017-Dec-08 14:59N 24°10' W 110°19'0 0.3
2017-Dec-08 14:29N 24°10' W 110°19'1 1.4
2017-Dec-08 13:59N 24°10' W 110°19'0 0.8
2017-Dec-08 13:29N 24°10' W 110°19'2 3.8
2017-Dec-08 12:59N 24°12' W 110°18'2 4.6
2017-Dec-08 12:31N 24°14' W 110°20'3 6.4
2017-Dec-08 11:59N 24°17' W 110°21'  
2017-Dec-04 03:33N 24°17' W 110°21'1 8.3
2017-Dec-04 03:29N 24°17' W 110°21'0 1.0
2017-Dec-04 02:59N 24°17' W 110°20'1 1.9
2017-Dec-04 02:29N 24°17' W 110°21'1 0.1
2017-Dec-03 07:38N 24°18' W 110°21'1 6.1
2017-Dec-03 07:30N 24°18' W 110°21'3 6.5
2017-Dec-03 07:00N 24°14' W 110°20'3 5.8
2017-Dec-03 06:30N 24°12' W 110°18'3 5.2
2017-Dec-03 05:59N 24°10' W 110°19'0 0.0
2017-Dec-03 05:29N 24°10' W 110°19'0 0.0
2017-Dec-03 04:59N 24°10' W 110°19'0 0.0
2017-Dec-03 04:29N 24°10' W 110°19'0 0.0
2017-Dec-03 03:59N 24°10' W 110°19'0 0.0
2017-Dec-03 03:28N 24°10' W 110°19'0 0.0
2017-Dec-03 02:58N 24°10' W 110°19'0 0.0
2017-Dec-03 02:28N 24°10' W 110°19'0 0.0
2017-Dec-03 01:58N 24°10' W 110°19'0 0.0
2017-Dec-03 01:28N 24°10' W 110°19'0 0.0
2017-Dec-03 00:58N 24°10' W 110°19'0 0.0
2017-Dec-03 00:19N 24°10' W 110°19'0 0.0
2017-Dec-02 23:58N 24°10' W 110°19'0 0.0
2017-Dec-02 23:29N 24°10' W 110°19'0 0.0
2017-Dec-02 22:59N 24°10' W 110°19'0 0.0
2017-Dec-02 22:29N 24°10' W 110°19'0 0.0
2017-Dec-02 21:58N 24°10' W 110°19'0 0.0
2017-Dec-02 21:28N 24°10' W 110°19'0 0.0
2017-Dec-02 20:58N 24°10' W 110°19'0 0.0
2017-Dec-02 20:28N 24°10' W 110°19'0 0.0
2017-Dec-02 19:58N 24°10' W 110°19'0 0.0
2017-Dec-02 19:26N 24°10' W 110°19'0 0.0
2017-Dec-02 18:58N 24°10' W 110°19'0 0.0
2017-Dec-02 18:28N 24°10' W 110°19'0 0.0
2017-Dec-02 17:58N 24°10' W 110°19'0 0.0
2017-Dec-02 17:28N 24°10' W 110°19'0 0.0
2017-Dec-02 16:58N 24°10' W 110°19'0 0.0
2017-Dec-02 16:15N 24°10' W 110°19'0 0.0
2017-Dec-02 15:58N 24°10' W 110°19'0 0.0
2017-Dec-02 15:28N 24°10' W 110°19'0 0.0
2017-Dec-02 14:58N 24°10' W 110°19'0 0.0
2017-Dec-02 14:29N 24°10' W 110°19'0 0.0
2017-Dec-02 13:59N 24°10' W 110°19'0 0.0
2017-Dec-02 13:28N 24°10' W 110°19'0 0.0
2017-Dec-02 12:58N 24°10' W 110°19'0 0.0
2017-Dec-02 12:28N 24°10' W 110°19'0 0.1
2017-Dec-02 11:58N 24°10' W 110°19'0 0.1
2017-Dec-02 11:28N 24°10' W 110°19'0 0.0
2017-Dec-02 10:58N 24°10' W 110°19'0 0.0
2017-Dec-02 10:28N 24°10' W 110°19'0 0.0
2017-Dec-02 09:58N 24°10' W 110°19'0 0.0
2017-Dec-02 09:28N 24°10' W 110°19'0 0.0
2017-Dec-02 08:58N 24°10' W 110°19'0 0.0
2017-Dec-02 08:28N 24°10' W 110°19'0 0.1
2017-Dec-02 07:58N 24°10' W 110°19'0 0.1
2017-Dec-02 07:28N 24°10' W 110°19'0 0.0
2017-Dec-02 06:58N 24°10' W 110°19'0 0.0
2017-Dec-02 06:28N 24°10' W 110°19'0 0.0
2017-Dec-02 05:58N 24°10' W 110°19'0 0.0
2017-Dec-02 05:28N 24°10' W 110°19'0 0.0
2017-Dec-02 04:58N 24°10' W 110°19'0 0.0
2017-Dec-02 04:28N 24°10' W 110°19'0 0.0
2017-Dec-02 04:00N 24°10' W 110°19'0 0.0
2017-Dec-02 03:28N 24°10' W 110°19'0 0.0
2017-Dec-02 02:58N 24°10' W 110°19'0 0.0
2017-Dec-02 02:28N 24°10' W 110°19'0 0.0
2017-Dec-02 01:58N 24°10' W 110°19'0 0.0
2017-Dec-02 01:28N 24°10' W 110°19'0 0.0
2017-Dec-02 00:58N 24°10' W 110°19'0 0.0
2017-Dec-02 00:28N 24°10' W 110°19'0 0.0
2017-Dec-01 23:58N 24°10' W 110°19'0 0.0
2017-Dec-01 23:28N 24°10' W 110°19'0 0.0
2017-Dec-01 22:58N 24°10' W 110°19'0 0.0
2017-Dec-01 22:28N 24°10' W 110°19'0 0.0
2017-Dec-01 21:58N 24°10' W 110°19'0 0.0
2017-Dec-01 21:28N 24°10' W 110°19'0 0.0
2017-Dec-01 20:58N 24°10' W 110°19'0 0.0
2017-Dec-01 20:28N 24°10' W 110°19'0 0.0
2017-Dec-01 19:58N 24°10' W 110°19'0 0.0
2017-Dec-01 19:28N 24°10' W 110°19'0 0.0
2017-Dec-01 18:58N 24°10' W 110°19'0 0.0
2017-Dec-01 18:28N 24°10' W 110°19'0 0.0
2017-Dec-01 17:58N 24°10' W 110°19'0 0.0
2017-Dec-01 17:28N 24°10' W 110°19'0 0.0
2017-Dec-01 16:58N 24°10' W 110°19'0 0.0
2017-Dec-01 16:28N 24°10' W 110°19'0 0.0
2017-Dec-01 15:58N 24°10' W 110°19'0 0.0
2017-Dec-01 15:28N 24°10' W 110°19'0 0.0
2017-Dec-01 14:58N 24°10' W 110°19'0 0.0
2017-Dec-01 14:30N 24°10' W 110°19'0 0.0
2017-Dec-01 13:57N 24°10' W 110°19'0 0.0
2017-Dec-01 13:29N 24°10' W 110°19'0 0.8
2017-Dec-01 12:59N 24°10' W 110°19'3 5.7
2017-Dec-01 12:29N 24°13' W 110°18'3 6.2
2017-Dec-01 12:00N 24°15' W 110°21'3 7.0
2017-Dec-01 11:30N 24°18' W 110°22'  

Dump ship's entire track history